sensor_id;sensor_type;location;lat;lon;timestamp;temperature;humidity
17495;DHT22;8864;51.970;4.614;2022-12-29T00:01:33;16.10;78.60
17495;DHT22;8864;51.970;4.614;2022-12-29T00:04:05;16.10;78.50
17495;DHT22;8864;51.970;4.614;2022-12-29T00:06:34;16.10;78.40
17495;DHT22;8864;51.970;4.614;2022-12-29T00:09:01;16.10;78.30
17495;DHT22;8864;51.970;4.614;2022-12-29T00:11:30;16.10;78.30
17495;DHT22;8864;51.970;4.614;2022-12-29T00:13:58;16.10;78.30
17495;DHT22;8864;51.970;4.614;2022-12-29T00:16:47;16.10;78.30
17495;DHT22;8864;51.970;4.614;2022-12-29T00:19:15;16.10;78.20
17495;DHT22;8864;51.970;4.614;2022-12-29T00:22:08;16.10;78.20
17495;DHT22;8864;51.970;4.614;2022-12-29T00:24:58;16.10;78.10
17495;DHT22;8864;51.970;4.614;2022-12-29T00:27:45;16.10;78.10
17495;DHT22;8864;51.970;4.614;2022-12-29T00:30:30;16.10;78.10
17495;DHT22;8864;51.970;4.614;2022-12-29T00:33:19;16.10;78.10
17495;DHT22;8864;51.970;4.614;2022-12-29T00:36:10;16.10;78.10
17495;DHT22;8864;51.970;4.614;2022-12-29T00:38:44;16.10;78.10
17495;DHT22;8864;51.970;4.614;2022-12-29T00:41:29;16.10;78.00
17495;DHT22;8864;51.970;4.614;2022-12-29T00:44:14;16.10;78.10
17495;DHT22;8864;51.970;4.614;2022-12-29T00:46:42;16.10;78.00
17495;DHT22;8864;51.970;4.614;2022-12-29T00:49:12;16.10;78.00
17495;DHT22;8864;51.970;4.614;2022-12-29T00:52:02;16.10;78.00
17495;DHT22;8864;51.970;4.614;2022-12-29T00:54:41;16.10;78.10
17495;DHT22;8864;51.970;4.614;2022-12-29T00:57:22;16.10;78.00
17495;DHT22;8864;51.970;4.614;2022-12-29T00:59:51;16.10;78.00
17495;DHT22;8864;51.970;4.614;2022-12-29T01:02:22;16.10;78.00
17495;DHT22;8864;51.970;4.614;2022-12-29T01:04:49;16.10;78.00
17495;DHT22;8864;51.970;4.614;2022-12-29T01:07:21;16.10;78.00
17495;DHT22;8864;51.970;4.614;2022-12-29T01:09:49;16.10;78.30
17495;DHT22;8864;51.970;4.614;2022-12-29T01:12:37;16.20;78.00
17495;DHT22;8864;51.970;4.614;2022-12-29T01:15:12;16.20;78.00
17495;DHT22;8864;51.970;4.614;2022-12-29T01:17:42;16.20;78.20
17495;DHT22;8864;51.970;4.614;2022-12-29T01:20:10;16.20;78.10
17495;DHT22;8864;51.970;4.614;2022-12-29T01:22:39;16.20;78.40
17495;DHT22;8864;51.970;4.614;2022-12-29T01:25:10;16.20;78.20
17495;DHT22;8864;51.970;4.614;2022-12-29T01:27:38;16.20;78.20
17495;DHT22;8864;51.970;4.614;2022-12-29T01:30:09;16.20;78.20
17495;DHT22;8864;51.970;4.614;2022-12-29T01:32:37;16.20;78.20
17495;DHT22;8864;51.970;4.614;2022-12-29T01:35:09;16.20;78.30
17495;DHT22;8864;51.970;4.614;2022-12-29T01:37:41;16.20;78.30
17495;DHT22;8864;51.970;4.614;2022-12-29T01:40:11;16.20;78.30
17495;DHT22;8864;51.970;4.614;2022-12-29T01:42:42;16.20;78.50
17495;DHT22;8864;51.970;4.614;2022-12-29T01:45:15;16.20;78.30
17495;DHT22;8864;51.970;4.614;2022-12-29T01:47:52;16.20;78.50
17495;DHT22;8864;51.970;4.614;2022-12-29T01:50:31;16.20;78.50
17495;DHT22;8864;51.970;4.614;2022-12-29T01:53:13;16.20;78.60
17495;DHT22;8864;51.970;4.614;2022-12-29T01:55:48;16.20;78.60
17495;DHT22;8864;51.970;4.614;2022-12-29T01:58:22;16.20;78.60
17495;DHT22;8864;51.970;4.614;2022-12-29T02:00:50;16.20;78.60
17495;DHT22;8864;51.970;4.614;2022-12-29T02:03:27;16.10;78.70
17495;DHT22;8864;51.970;4.614;2022-12-29T02:06:03;16.20;78.70
17495;DHT22;8864;51.970;4.614;2022-12-29T02:08:36;16.20;78.70
17495;DHT22;8864;51.970;4.614;2022-12-29T02:11:08;16.20;78.70
17495;DHT22;8864;51.970;4.614;2022-12-29T02:13:38;16.20;78.70
17495;DHT22;8864;51.970;4.614;2022-12-29T02:16:24;16.20;78.80
17495;DHT22;8864;51.970;4.614;2022-12-29T02:19:18;16.10;78.70
17495;DHT22;8864;51.970;4.614;2022-12-29T02:22:11;16.20;78.70
17495;DHT22;8864;51.970;4.614;2022-12-29T02:25:19;16.20;78.70
17495;DHT22;8864;51.970;4.614;2022-12-29T02:27:55;16.10;78.70
17495;DHT22;8864;51.970;4.614;2022-12-29T02:30:36;16.20;78.70
17495;DHT22;8864;51.970;4.614;2022-12-29T02:33:18;16.10;78.70
17495;DHT22;8864;51.970;4.614;2022-12-29T02:35:55;16.10;78.70
17495;DHT22;8864;51.970;4.614;2022-12-29T02:38:45;16.10;78.70
17495;DHT22;8864;51.970;4.614;2022-12-29T02:41:23;16.10;78.70
17495;DHT22;8864;51.970;4.614;2022-12-29T02:43:58;16.10;78.70
17495;DHT22;8864;51.970;4.614;2022-12-29T02:46:34;16.20;78.70
17495;DHT22;8864;51.970;4.614;2022-12-29T02:49:12;16.20;78.60
17495;DHT22;8864;51.970;4.614;2022-12-29T02:51:52;16.10;78.60
17495;DHT22;8864;51.970;4.614;2022-12-29T02:54:31;16.10;78.60
17495;DHT22;8864;51.970;4.614;2022-12-29T02:57:11;16.10;78.60
17495;DHT22;8864;51.970;4.614;2022-12-29T02:59:39;16.20;78.60
17495;DHT22;8864;51.970;4.614;2022-12-29T03:02:31;16.20;78.50
17495;DHT22;8864;51.970;4.614;2022-12-29T03:05:20;16.10;78.60
17495;DHT22;8864;51.970;4.614;2022-12-29T03:07:55;16.10;78.60
17495;DHT22;8864;51.970;4.614;2022-12-29T03:10:33;16.10;78.50
17495;DHT22;8864;51.970;4.614;2022-12-29T03:13:11;16.10;78.50
17495;DHT22;8864;51.970;4.614;2022-12-29T03:16:07;16.10;78.60
17495;DHT22;8864;51.970;4.614;2022-12-29T03:18:48;16.10;78.40
17495;DHT22;8864;51.970;4.614;2022-12-29T03:21:24;16.10;78.40
17495;DHT22;8864;51.970;4.614;2022-12-29T03:24:18;16.10;78.40
17495;DHT22;8864;51.970;4.614;2022-12-29T03:26:50;16.10;78.40
17495;DHT22;8864;51.970;4.614;2022-12-29T03:29:18;16.10;78.60
17495;DHT22;8864;51.970;4.614;2022-12-29T03:31:51;16.10;78.30
17495;DHT22;8864;51.970;4.614;2022-12-29T03:34:31;16.10;78.30
17495;DHT22;8864;51.970;4.614;2022-12-29T03:37:09;16.10;78.30
17495;DHT22;8864;51.970;4.614;2022-12-29T03:39:47;16.10;78.30
17495;DHT22;8864;51.970;4.614;2022-12-29T03:42:25;16.10;78.20
17495;DHT22;8864;51.970;4.614;2022-12-29T03:45:01;16.10;78.20
17495;DHT22;8864;51.970;4.614;2022-12-29T03:47:29;16.10;78.20
17495;DHT22;8864;51.970;4.614;2022-12-29T03:50:05;16.10;78.10
17495;DHT22;8864;51.970;4.614;2022-12-29T03:52:34;16.10;78.10
17495;DHT22;8864;51.970;4.614;2022-12-29T03:55:06;16.10;78.10
17495;DHT22;8864;51.970;4.614;2022-12-29T03:57:49;16.10;78.10
17495;DHT22;8864;51.970;4.614;2022-12-29T04:00:20;16.10;78.10
17495;DHT22;8864;51.970;4.614;2022-12-29T04:02:52;16.10;78.80
17495;DHT22;8864;51.970;4.614;2022-12-29T04:05:20;16.10;78.10
17495;DHT22;8864;51.970;4.614;2022-12-29T04:07:50;16.10;78.00
17495;DHT22;8864;51.970;4.614;2022-12-29T04:10:17;16.10;78.00
17495;DHT22;8864;51.970;4.614;2022-12-29T04:12:45;16.10;78.70
17495;DHT22;8864;51.970;4.614;2022-12-29T04:15:13;16.10;78.00
17495;DHT22;8864;51.970;4.614;2022-12-29T04:17:40;16.10;77.90
17495;DHT22;8864;51.970;4.614;2022-12-29T04:20:10;16.10;77.90
17495;DHT22;8864;51.970;4.614;2022-12-29T04:23:06;16.10;77.80
17495;DHT22;8864;51.970;4.614;2022-12-29T04:25:48;16.10;77.80
17495;DHT22;8864;51.970;4.614;2022-12-29T04:28:16;16.10;77.80
17495;DHT22;8864;51.970;4.614;2022-12-29T04:30:45;16.10;77.80
17495;DHT22;8864;51.970;4.614;2022-12-29T04:33:15;16.10;77.70
17495;DHT22;8864;51.970;4.614;2022-12-29T04:35:51;16.10;77.70
17495;DHT22;8864;51.970;4.614;2022-12-29T04:38:33;16.10;77.80
17495;DHT22;8864;51.970;4.614;2022-12-29T04:41:02;16.10;77.80
17495;DHT22;8864;51.970;4.614;2022-12-29T04:43:29;16.10;77.80
17495;DHT22;8864;51.970;4.614;2022-12-29T04:45:58;16.10;77.80
17495;DHT22;8864;51.970;4.614;2022-12-29T04:48:31;16.10;77.70
17495;DHT22;8864;51.970;4.614;2022-12-29T04:51:02;16.10;77.70
17495;DHT22;8864;51.970;4.614;2022-12-29T04:53:31;16.10;77.80
17495;DHT22;8864;51.970;4.614;2022-12-29T04:56:02;16.10;77.80
17495;DHT22;8864;51.970;4.614;2022-12-29T04:58:31;16.10;77.70
17495;DHT22;8864;51.970;4.614;2022-12-29T05:01:00;16.10;77.70
17495;DHT22;8864;51.970;4.614;2022-12-29T05:03:27;16.00;77.60
17495;DHT22;8864;51.970;4.614;2022-12-29T05:05:54;16.10;77.60
17495;DHT22;8864;51.970;4.614;2022-12-29T05:08:21;16.00;77.60
17495;DHT22;8864;51.970;4.614;2022-12-29T05:10:56;16.10;77.60
17495;DHT22;8864;51.970;4.614;2022-12-29T05:13:27;16.10;77.60
17495;DHT22;8864;51.970;4.614;2022-12-29T05:16:00;16.10;77.60
17495;DHT22;8864;51.970;4.614;2022-12-29T05:18:30;16.10;77.60
17495;DHT22;8864;51.970;4.614;2022-12-29T05:21:01;16.00;77.50
17495;DHT22;8864;51.970;4.614;2022-12-29T05:23:28;16.10;77.60
17495;DHT22;8864;51.970;4.614;2022-12-29T05:26:01;16.00;77.60
17495;DHT22;8864;51.970;4.614;2022-12-29T05:28:32;16.10;77.70
17495;DHT22;8864;51.970;4.614;2022-12-29T05:30:59;16.00;77.60
17495;DHT22;8864;51.970;4.614;2022-12-29T05:33:31;16.00;77.70
17495;DHT22;8864;51.970;4.614;2022-12-29T05:36:03;16.00;77.80
17495;DHT22;8864;51.970;4.614;2022-12-29T05:38:32;16.00;77.80
17495;DHT22;8864;51.970;4.614;2022-12-29T05:41:01;16.00;77.80
17495;DHT22;8864;51.970;4.614;2022-12-29T05:43:30;16.00;77.80
17495;DHT22;8864;51.970;4.614;2022-12-29T05:46:07;16.00;77.80
17495;DHT22;8864;51.970;4.614;2022-12-29T05:48:40;16.00;77.80
17495;DHT22;8864;51.970;4.614;2022-12-29T05:51:07;16.00;78.60
17495;DHT22;8864;51.970;4.614;2022-12-29T05:53:34;16.00;77.80
17495;DHT22;8864;51.970;4.614;2022-12-29T05:56:06;16.00;77.80
17495;DHT22;8864;51.970;4.614;2022-12-29T05:58:37;16.00;77.80
17495;DHT22;8864;51.970;4.614;2022-12-29T06:01:07;16.00;77.80
17495;DHT22;8864;51.970;4.614;2022-12-29T06:03:36;16.00;77.80
17495;DHT22;8864;51.970;4.614;2022-12-29T06:06:07;16.00;77.80
17495;DHT22;8864;51.970;4.614;2022-12-29T06:08:38;16.00;77.80
17495;DHT22;8864;51.970;4.614;2022-12-29T06:11:07;16.00;77.80
17495;DHT22;8864;51.970;4.614;2022-12-29T06:13:46;16.00;77.80
17495;DHT22;8864;51.970;4.614;2022-12-29T06:16:18;16.00;77.80
17495;DHT22;8864;51.970;4.614;2022-12-29T06:18:46;16.00;77.70
17495;DHT22;8864;51.970;4.614;2022-12-29T06:21:14;16.00;77.70
17495;DHT22;8864;51.970;4.614;2022-12-29T06:23:42;16.00;77.70
17495;DHT22;8864;51.970;4.614;2022-12-29T06:26:13;16.00;77.70
17495;DHT22;8864;51.970;4.614;2022-12-29T06:28:50;16.00;77.70
17495;DHT22;8864;51.970;4.614;2022-12-29T06:31:17;16.00;77.60
17495;DHT22;8864;51.970;4.614;2022-12-29T06:33:48;16.00;77.60
17495;DHT22;8864;51.970;4.614;2022-12-29T06:36:17;16.00;77.60
17495;DHT22;8864;51.970;4.614;2022-12-29T06:38:56;16.00;77.60
17495;DHT22;8864;51.970;4.614;2022-12-29T06:41:43;16.00;77.50
17495;DHT22;8864;51.970;4.614;2022-12-29T06:44:13;16.00;77.50
17495;DHT22;8864;51.970;4.614;2022-12-29T06:46:54;16.00;77.40
17495;DHT22;8864;51.970;4.614;2022-12-29T06:49:24;16.00;77.50
17495;DHT22;8864;51.970;4.614;2022-12-29T06:51:51;16.00;77.40
17495;DHT22;8864;51.970;4.614;2022-12-29T06:54:20;16.00;77.30
17495;DHT22;8864;51.970;4.614;2022-12-29T06:56:52;16.00;77.30
17495;DHT22;8864;51.970;4.614;2022-12-29T06:59:22;16.00;77.20
17495;DHT22;8864;51.970;4.614;2022-12-29T07:01:55;16.00;77.20
17495;DHT22;8864;51.970;4.614;2022-12-29T07:04:23;16.00;77.10
17495;DHT22;8864;51.970;4.614;2022-12-29T07:06:54;16.00;77.00
17495;DHT22;8864;51.970;4.614;2022-12-29T07:09:21;16.00;77.00
17495;DHT22;8864;51.970;4.614;2022-12-29T07:11:48;16.00;77.00
17495;DHT22;8864;51.970;4.614;2022-12-29T07:14:17;16.00;77.00
17495;DHT22;8864;51.970;4.614;2022-12-29T07:16:46;16.00;77.00
17495;DHT22;8864;51.970;4.614;2022-12-29T07:19:15;15.90;77.00
17495;DHT22;8864;51.970;4.614;2022-12-29T07:21:46;15.90;77.00
17495;DHT22;8864;51.970;4.614;2022-12-29T07:24:13;15.90;77.00
17495;DHT22;8864;51.970;4.614;2022-12-29T07:26:43;16.00;77.20
17495;DHT22;8864;51.970;4.614;2022-12-29T07:29:10;15.90;77.20
17495;DHT22;8864;51.970;4.614;2022-12-29T07:31:39;16.00;77.20
17495;DHT22;8864;51.970;4.614;2022-12-29T07:34:11;16.00;77.20
17495;DHT22;8864;51.970;4.614;2022-12-29T07:36:39;15.90;77.10
17495;DHT22;8864;51.970;4.614;2022-12-29T07:39:10;15.90;77.20
17495;DHT22;8864;51.970;4.614;2022-12-29T07:41:38;15.90;77.20
17495;DHT22;8864;51.970;4.614;2022-12-29T07:44:08;15.90;77.30
17495;DHT22;8864;51.970;4.614;2022-12-29T07:46:40;15.90;77.30
17495;DHT22;8864;51.970;4.614;2022-12-29T07:49:13;16.00;77.30
17495;DHT22;8864;51.970;4.614;2022-12-29T07:51:41;15.90;77.20
17495;DHT22;8864;51.970;4.614;2022-12-29T07:54:10;15.90;77.10
17495;DHT22;8864;51.970;4.614;2022-12-29T07:56:49;15.90;77.00
17495;DHT22;8864;51.970;4.614;2022-12-29T07:59:19;15.90;76.90
17495;DHT22;8864;51.970;4.614;2022-12-29T08:01:48;15.90;76.90
17495;DHT22;8864;51.970;4.614;2022-12-29T08:04:15;16.00;76.90
17495;DHT22;8864;51.970;4.614;2022-12-29T08:06:44;15.90;76.70
17495;DHT22;8864;51.970;4.614;2022-12-29T08:09:16;16.00;76.70
17495;DHT22;8864;51.970;4.614;2022-12-29T08:11:46;16.00;76.60
17495;DHT22;8864;51.970;4.614;2022-12-29T08:14:13;16.00;76.40
17495;DHT22;8864;51.970;4.614;2022-12-29T08:16:43;16.00;76.30
17495;DHT22;8864;51.970;4.614;2022-12-29T08:19:15;15.90;76.10
17495;DHT22;8864;51.970;4.614;2022-12-29T08:21:46;16.00;76.10
17495;DHT22;8864;51.970;4.614;2022-12-29T08:24:14;16.00;76.00
17495;DHT22;8864;51.970;4.614;2022-12-29T08:27:01;15.90;76.10
17495;DHT22;8864;51.970;4.614;2022-12-29T08:29:34;16.00;75.90
17495;DHT22;8864;51.970;4.614;2022-12-29T08:32:00;15.90;75.70
17495;DHT22;8864;51.970;4.614;2022-12-29T08:34:33;15.90;75.60
17495;DHT22;8864;51.970;4.614;2022-12-29T08:37:18;16.00;75.70
17495;DHT22;8864;51.970;4.614;2022-12-29T08:39:45;16.00;75.60
17495;DHT22;8864;51.970;4.614;2022-12-29T08:42:14;16.00;75.50
17495;DHT22;8864;51.970;4.614;2022-12-29T08:44:46;16.00;75.40
17495;DHT22;8864;51.970;4.614;2022-12-29T08:47:15;16.00;75.30
17495;DHT22;8864;51.970;4.614;2022-12-29T08:49:46;16.00;76.30
17495;DHT22;8864;51.970;4.614;2022-12-29T08:52:14;16.00;76.70
17495;DHT22;8864;51.970;4.614;2022-12-29T08:54:44;16.00;76.60
17495;DHT22;8864;51.970;4.614;2022-12-29T08:57:13;16.00;76.40
17495;DHT22;8864;51.970;4.614;2022-12-29T08:59:42;16.00;76.20
17495;DHT22;8864;51.970;4.614;2022-12-29T09:02:10;16.00;76.10
17495;DHT22;8864;51.970;4.614;2022-12-29T09:04:44;16.00;76.10
17495;DHT22;8864;51.970;4.614;2022-12-29T09:07:12;16.00;76.50
17495;DHT22;8864;51.970;4.614;2022-12-29T09:09:43;16.00;77.30
17495;DHT22;8864;51.970;4.614;2022-12-29T09:12:15;16.00;78.00
17495;DHT22;8864;51.970;4.614;2022-12-29T09:14:49;16.00;78.50
17495;DHT22;8864;51.970;4.614;2022-12-29T09:17:16;16.00;78.90
17495;DHT22;8864;51.970;4.614;2022-12-29T09:20:07;16.00;78.70
17495;DHT22;8864;51.970;4.614;2022-12-29T09:22:47;16.00;78.50
17495;DHT22;8864;51.970;4.614;2022-12-29T09:25:19;16.00;78.30
17495;DHT22;8864;51.970;4.614;2022-12-29T09:27:53;16.00;78.30
17495;DHT22;8864;51.970;4.614;2022-12-29T09:30:24;16.00;78.10
17495;DHT22;8864;51.970;4.614;2022-12-29T09:32:51;16.00;78.10
17495;DHT22;8864;51.970;4.614;2022-12-29T09:35:21;16.00;78.00
17495;DHT22;8864;51.970;4.614;2022-12-29T09:37:50;16.00;77.90
17495;DHT22;8864;51.970;4.614;2022-12-29T09:40:27;16.00;77.80
17495;DHT22;8864;51.970;4.614;2022-12-29T09:43:24;16.00;78.60
17495;DHT22;8864;51.970;4.614;2022-12-29T09:46:03;16.00;77.80
17495;DHT22;8864;51.970;4.614;2022-12-29T09:48:41;16.00;77.70
17495;DHT22;8864;51.970;4.614;2022-12-29T09:51:23;16.10;78.70
17495;DHT22;8864;51.970;4.614;2022-12-29T09:53:55;16.00;79.10
17495;DHT22;8864;51.970;4.614;2022-12-29T09:56:25;16.00;78.80
17495;DHT22;8864;51.970;4.614;2022-12-29T09:58:58;16.00;78.60
17495;DHT22;8864;51.970;4.614;2022-12-29T10:01:32;16.00;78.50
17495;DHT22;8864;51.970;4.614;2022-12-29T10:04:07;16.00;78.30
17495;DHT22;8864;51.970;4.614;2022-12-29T10:06:42;16.00;78.10
17495;DHT22;8864;51.970;4.614;2022-12-29T10:09:21;16.00;78.10
17495;DHT22;8864;51.970;4.614;2022-12-29T10:12:01;16.10;78.00
17495;DHT22;8864;51.970;4.614;2022-12-29T10:14:55;16.10;78.00
17495;DHT22;8864;51.970;4.614;2022-12-29T10:17:41;16.10;77.90
17495;DHT22;8864;51.970;4.614;2022-12-29T10:20:42;16.10;77.80
17495;DHT22;8864;51.970;4.614;2022-12-29T10:23:22;16.10;77.80
17495;DHT22;8864;51.970;4.614;2022-12-29T10:26:10;16.00;77.80
17495;DHT22;8864;51.970;4.614;2022-12-29T10:28:43;16.00;77.80
17495;DHT22;8864;51.970;4.614;2022-12-29T10:31:16;16.00;77.70
17495;DHT22;8864;51.970;4.614;2022-12-29T10:33:56;16.00;77.70
17495;DHT22;8864;51.970;4.614;2022-12-29T10:36:28;16.00;77.70
17495;DHT22;8864;51.970;4.614;2022-12-29T10:39:05;16.10;77.70
17495;DHT22;8864;51.970;4.614;2022-12-29T10:41:43;16.10;77.60
17495;DHT22;8864;51.970;4.614;2022-12-29T10:44:19;16.10;77.60
17495;DHT22;8864;51.970;4.614;2022-12-29T10:46:55;16.10;77.50
17495;DHT22;8864;51.970;4.614;2022-12-29T10:49:32;16.10;77.50
17495;DHT22;8864;51.970;4.614;2022-12-29T10:52:06;16.10;77.50
17495;DHT22;8864;51.970;4.614;2022-12-29T10:54:41;16.10;77.50
17495;DHT22;8864;51.970;4.614;2022-12-29T10:57:26;16.10;77.50
17495;DHT22;8864;51.970;4.614;2022-12-29T10:59:54;16.00;77.60
17495;DHT22;8864;51.970;4.614;2022-12-29T11:05:33;16.10;77.70
17495;DHT22;8864;51.970;4.614;2022-12-29T11:08:12;16.10;77.70
17495;DHT22;8864;51.970;4.614;2022-12-29T11:10:40;16.10;77.70
17495;DHT22;8864;51.970;4.614;2022-12-29T11:13:17;16.10;77.70
17495;DHT22;8864;51.970;4.614;2022-12-29T11:15:48;16.10;77.70
17495;DHT22;8864;51.970;4.614;2022-12-29T11:18:21;16.10;77.70
17495;DHT22;8864;51.970;4.614;2022-12-29T11:20:58;16.10;77.70
17495;DHT22;8864;51.970;4.614;2022-12-29T11:23:40;16.10;77.80
17495;DHT22;8864;51.970;4.614;2022-12-29T11:26:24;16.10;77.70
17495;DHT22;8864;51.970;4.614;2022-12-29T11:29:20;16.10;77.70
17495;DHT22;8864;51.970;4.614;2022-12-29T11:31:52;16.10;77.70
17495;DHT22;8864;51.970;4.614;2022-12-29T11:34:37;16.10;77.80
17495;DHT22;8864;51.970;4.614;2022-12-29T11:37:06;16.10;77.80
17495;DHT22;8864;51.970;4.614;2022-12-29T11:39:42;16.10;77.80
17495;DHT22;8864;51.970;4.614;2022-12-29T11:42:17;16.10;77.80
17495;DHT22;8864;51.970;4.614;2022-12-29T11:44:49;16.10;77.80
17495;DHT22;8864;51.970;4.614;2022-12-29T11:47:25;16.10;77.80
17495;DHT22;8864;51.970;4.614;2022-12-29T11:49:55;16.10;77.70
17495;DHT22;8864;51.970;4.614;2022-12-29T11:52:27;16.10;77.80
17495;DHT22;8864;51.970;4.614;2022-12-29T11:55:00;16.10;77.80
17495;DHT22;8864;51.970;4.614;2022-12-29T11:57:35;16.10;77.80
17495;DHT22;8864;51.970;4.614;2022-12-29T12:00:15;16.10;77.80
17495;DHT22;8864;51.970;4.614;2022-12-29T12:02:48;16.10;77.80
17495;DHT22;8864;51.970;4.614;2022-12-29T12:05:23;16.10;77.80
17495;DHT22;8864;51.970;4.614;2022-12-29T12:08:02;16.10;77.80
17495;DHT22;8864;51.970;4.614;2022-12-29T12:10:36;16.10;77.80
17495;DHT22;8864;51.970;4.614;2022-12-29T12:13:22;16.10;77.80
17495;DHT22;8864;51.970;4.614;2022-12-29T12:15:59;16.10;77.80
17495;DHT22;8864;51.970;4.614;2022-12-29T12:18:37;16.10;77.80
17495;DHT22;8864;51.970;4.614;2022-12-29T12:21:18;16.10;77.80
17495;DHT22;8864;51.970;4.614;2022-12-29T12:24:04;16.10;77.80
17495;DHT22;8864;51.970;4.614;2022-12-29T12:26:45;16.10;77.70
17495;DHT22;8864;51.970;4.614;2022-12-29T12:29:22;16.10;77.70
17495;DHT22;8864;51.970;4.614;2022-12-29T12:31:55;16.10;77.70
17495;DHT22;8864;51.970;4.614;2022-12-29T12:34:30;16.10;77.70
17495;DHT22;8864;51.970;4.614;2022-12-29T12:37:15;16.10;77.70
17495;DHT22;8864;51.970;4.614;2022-12-29T12:40:03;16.10;77.60
17495;DHT22;8864;51.970;4.614;2022-12-29T12:42:42;16.10;77.60
17495;DHT22;8864;51.970;4.614;2022-12-29T12:45:36;16.20;77.60
17495;DHT22;8864;51.970;4.614;2022-12-29T12:48:28;16.20;77.60
17495;DHT22;8864;51.970;4.614;2022-12-29T12:51:07;16.10;77.60
17495;DHT22;8864;51.970;4.614;2022-12-29T12:54:04;16.10;77.60
17495;DHT22;8864;51.970;4.614;2022-12-29T12:56:47;16.10;77.70
17495;DHT22;8864;51.970;4.614;2022-12-29T12:59:32;16.10;77.70
17495;DHT22;8864;51.970;4.614;2022-12-29T13:02:20;16.10;77.70
17495;DHT22;8864;51.970;4.614;2022-12-29T13:07:51;16.10;77.80
17495;DHT22;8864;51.970;4.614;2022-12-29T13:10:36;16.10;77.80
17495;DHT22;8864;51.970;4.614;2022-12-29T13:16:17;16.10;77.80
17495;DHT22;8864;51.970;4.614;2022-12-29T13:18:59;16.10;77.80
17495;DHT22;8864;51.970;4.614;2022-12-29T13:21:37;16.10;77.90
17495;DHT22;8864;51.970;4.614;2022-12-29T13:24:15;16.10;77.90
17495;DHT22;8864;51.970;4.614;2022-12-29T13:26:46;16.10;77.90
17495;DHT22;8864;51.970;4.614;2022-12-29T13:29:19;16.10;77.90
17495;DHT22;8864;51.970;4.614;2022-12-29T13:31:56;16.10;77.80
17495;DHT22;8864;51.970;4.614;2022-12-29T13:34:52;16.10;77.80
17495;DHT22;8864;51.970;4.614;2022-12-29T13:37:46;16.10;77.80
17495;DHT22;8864;51.970;4.614;2022-12-29T13:40:27;16.00;77.80
17495;DHT22;8864;51.970;4.614;2022-12-29T13:43:17;16.00;77.80
17495;DHT22;8864;51.970;4.614;2022-12-29T13:45:45;16.10;77.90
17495;DHT22;8864;51.970;4.614;2022-12-29T13:48:19;16.00;77.90
17495;DHT22;8864;51.970;4.614;2022-12-29T13:50:54;16.00;78.00
17495;DHT22;8864;51.970;4.614;2022-12-29T13:53:33;16.00;77.90
17495;DHT22;8864;51.970;4.614;2022-12-29T13:56:07;16.00;78.00
17495;DHT22;8864;51.970;4.614;2022-12-29T13:58:42;16.00;78.00
17495;DHT22;8864;51.970;4.614;2022-12-29T14:01:30;16.00;78.00
17495;DHT22;8864;51.970;4.614;2022-12-29T14:04:17;16.00;78.00
17495;DHT22;8864;51.970;4.614;2022-12-29T14:06:59;16.00;78.00
17495;DHT22;8864;51.970;4.614;2022-12-29T14:09:48;16.00;78.00
17495;DHT22;8864;51.970;4.614;2022-12-29T14:12:24;16.00;78.10
17495;DHT22;8864;51.970;4.614;2022-12-29T14:15:04;16.00;78.10
17495;DHT22;8864;51.970;4.614;2022-12-29T14:17:39;15.90;78.00
17495;DHT22;8864;51.970;4.614;2022-12-29T14:20:18;16.00;78.10
17495;DHT22;8864;51.970;4.614;2022-12-29T14:23:25;16.00;78.10
17495;DHT22;8864;51.970;4.614;2022-12-29T14:25:58;16.00;78.20
17495;DHT22;8864;51.970;4.614;2022-12-29T14:28:27;15.90;78.10
17495;DHT22;8864;51.970;4.614;2022-12-29T14:30:56;15.90;78.10
17495;DHT22;8864;51.970;4.614;2022-12-29T14:33:26;16.00;78.20
17495;DHT22;8864;51.970;4.614;2022-12-29T14:36:18;15.90;78.10
17495;DHT22;8864;51.970;4.614;2022-12-29T14:38:47;15.90;78.10
17495;DHT22;8864;51.970;4.614;2022-12-29T14:41:33;16.00;78.20
17495;DHT22;8864;51.970;4.614;2022-12-29T14:44:16;15.90;78.20
17495;DHT22;8864;51.970;4.614;2022-12-29T14:46:48;15.90;78.10
17495;DHT22;8864;51.970;4.614;2022-12-29T14:49:23;15.90;78.10
17495;DHT22;8864;51.970;4.614;2022-12-29T14:52:03;15.90;78.20
17495;DHT22;8864;51.970;4.614;2022-12-29T14:54:48;15.90;78.10
17495;DHT22;8864;51.970;4.614;2022-12-29T14:57:27;15.90;78.10
17495;DHT22;8864;51.970;4.614;2022-12-29T15:00:00;15.90;78.10
17495;DHT22;8864;51.970;4.614;2022-12-29T15:02:35;15.90;78.20
17495;DHT22;8864;51.970;4.614;2022-12-29T15:05:26;15.90;78.20
17495;DHT22;8864;51.970;4.614;2022-12-29T15:08:03;15.90;78.20
17495;DHT22;8864;51.970;4.614;2022-12-29T15:10:37;15.90;78.20
17495;DHT22;8864;51.970;4.614;2022-12-29T15:13:21;15.90;78.20
17495;DHT22;8864;51.970;4.614;2022-12-29T15:15:51;15.90;78.20
17495;DHT22;8864;51.970;4.614;2022-12-29T15:18:24;15.90;78.20
17495;DHT22;8864;51.970;4.614;2022-12-29T15:20:59;15.90;78.30
17495;DHT22;8864;51.970;4.614;2022-12-29T15:23:37;15.90;78.30
17495;DHT22;8864;51.970;4.614;2022-12-29T15:26:08;15.90;78.30
17495;DHT22;8864;51.970;4.614;2022-12-29T15:28:41;15.90;78.30
17495;DHT22;8864;51.970;4.614;2022-12-29T15:31:12;15.90;78.30
17495;DHT22;8864;51.970;4.614;2022-12-29T15:33:42;15.90;78.30
17495;DHT22;8864;51.970;4.614;2022-12-29T15:36:13;15.90;78.30
17495;DHT22;8864;51.970;4.614;2022-12-29T15:38:46;15.90;78.30
17495;DHT22;8864;51.970;4.614;2022-12-29T15:41:29;15.90;78.30
17495;DHT22;8864;51.970;4.614;2022-12-29T15:44:32;15.90;78.40
17495;DHT22;8864;51.970;4.614;2022-12-29T15:47:03;15.80;78.30
17495;DHT22;8864;51.970;4.614;2022-12-29T15:49:31;15.90;78.40
17495;DHT22;8864;51.970;4.614;2022-12-29T15:51:59;15.80;78.40
17495;DHT22;8864;51.970;4.614;2022-12-29T15:54:30;15.80;78.40
17495;DHT22;8864;51.970;4.614;2022-12-29T15:57:00;15.80;78.40
17495;DHT22;8864;51.970;4.614;2022-12-29T15:59:30;15.80;78.40
17495;DHT22;8864;51.970;4.614;2022-12-29T16:01:59;15.80;78.40
17495;DHT22;8864;51.970;4.614;2022-12-29T16:04:32;15.80;78.50
17495;DHT22;8864;51.970;4.614;2022-12-29T16:07:03;15.80;78.40
17495;DHT22;8864;51.970;4.614;2022-12-29T16:09:35;15.80;78.40
17495;DHT22;8864;51.970;4.614;2022-12-29T16:12:05;15.80;78.40
17495;DHT22;8864;51.970;4.614;2022-12-29T16:14:42;15.80;78.50
17495;DHT22;8864;51.970;4.614;2022-12-29T16:17:14;15.80;78.50
17495;DHT22;8864;51.970;4.614;2022-12-29T16:19:49;15.80;78.50
17495;DHT22;8864;51.970;4.614;2022-12-29T16:22:29;15.80;78.60
17495;DHT22;8864;51.970;4.614;2022-12-29T16:25:04;15.80;78.50
17495;DHT22;8864;51.970;4.614;2022-12-29T16:27:43;15.80;78.50
17495;DHT22;8864;51.970;4.614;2022-12-29T16:30:22;15.80;78.50
17495;DHT22;8864;51.970;4.614;2022-12-29T16:32:55;15.80;78.50
17495;DHT22;8864;51.970;4.614;2022-12-29T16:35:25;15.80;78.60
17495;DHT22;8864;51.970;4.614;2022-12-29T16:38:11;15.80;78.60
17495;DHT22;8864;51.970;4.614;2022-12-29T16:40:59;15.80;78.70
17495;DHT22;8864;51.970;4.614;2022-12-29T16:43:32;15.80;78.70
17495;DHT22;8864;51.970;4.614;2022-12-29T16:46:26;15.80;78.70